Happy Valentine's Day! 

Flight Track Log - Related Links

Times and Time Zones

All times are in EDT time to prevent confusion due to time zone crossing. See the N511TA flight status page for this flight to view local times or setup timezone preferences in your user account.


Time Position Orientation Groundspeed Altitude Reporting Facility
EDT Latitude Longitude Course Direction KTS MPH feet Rate Location/Type
Tue 12:06:22 PM 30.2894 -91.9300 North 189 217 3,600  Level Houston Center
Tue 12:07:24 PM 30.3356 -91.9272 North 166 191 5,500 1,887 Climbing Houston Center
Tue 12:08:26 PM 30.3908 -91.9214 North 166 191 7,500 1,790 Climbing Houston Center
Tue 12:09:28 PM 30.4356 -91.9156 North 164 189 9,200 1,597 Climbing Houston Center
Tue 12:10:30 PM 30.4836 -91.9072 North 170 196 10,800 1,500 Climbing Houston Center
Tue 12:11:32 PM 30.5325 -91.9033 North 177 204 12,300 1,403 Climbing Houston Center
Tue 12:12:34 PM 30.5789 -91.9014 North 169 194 13,700 1,488 Climbing Houston Center
Tue 12:13:37 PM 30.6372 -91.8931 North 174 200 15,400 1,392 Climbing Houston Center
Tue 12:14:39 PM 30.6794 -91.8667 28° Northeast 186 214 16,600 1,161 Climbing Houston Center
Tue 12:15:41 PM 30.7069 -91.8117 60° Northeast 195 224 17,800 1,113 Climbing Houston Center
Tue 12:16:43 PM 30.7383 -91.7589 55° Northeast 198 228 18,900 1,016 Climbing Houston Center
Tue 12:17:45 PM 30.7686 -91.7061 56° Northeast 198 228 19,900 919 Climbing Houston Center
Tue 12:18:47 PM 30.8003 -91.6522 56° Northeast 203 234 20,800 968 Climbing Houston Center
Tue 12:19:49 PM 30.8389 -91.5867 56° Northeast 205 236 21,900 968 Climbing Houston Center
Tue 12:20:51 PM 30.8719 -91.5319 55° Northeast 208 239 22,800 871 Climbing Houston Center
Tue 12:21:53 PM 30.9031 -91.4750 58° Northeast 209 241 23,700 768 Climbing Houston Center
Tue 12:22:56 PM 30.9364 -91.4189 55° Northeast 211 243 24,400 624 Climbing Houston Center
Tue 12:23:58 PM 30.9706 -91.3617 55° Northeast 215 247 25,000 290 Climbing Houston Center
Tue 12:25:00 PM 31.0086 -91.2933 57° Northeast 238 274 25,000  Level Houston Center
Tue 12:26:02 PM 31.0517 -91.2219 55° Northeast 263 303 25,000  Level Houston Center
Tue 12:27:04 PM 31.1031 -91.1336 56° Northeast 273 314 25,000  Level Houston Center
Tue 12:28:06 PM 31.1456 -91.0586 56° Northeast 276 318 25,000  Level Houston Center
Tue 12:29:08 PM 31.1881 -90.9833 57° Northeast 279 321 25,000  Level Houston Center
Tue 12:30:10 PM 31.2317 -90.9081 56° Northeast 279 321 25,000  Level Houston Center
Tue 12:31:12 PM 31.2758 -90.8322 56° Northeast 282 325 25,000  Level Houston Center
Tue 12:32:15 PM 31.3186 -90.7564 57° Northeast 280 322 25,000  Level Houston Center
Tue 12:33:17 PM 31.3728 -90.6628 56° Northeast 289 333 25,000  Level Houston Center
Tue 12:34:19 PM 31.4175 -90.5850 56° Northeast 288 331 25,000  Level Houston Center
Tue 12:35:21 PM 31.4608 -90.5075 57° Northeast 286 329 25,000  Level Houston Center
Tue 12:36:23 PM 31.5050 -90.4297 56° Northeast 287 330 25,000  Level Houston Center
Tue 12:37:25 PM 31.5486 -90.3519 57° Northeast 285 328 25,000  Level Houston Center
Tue 12:38:27 PM 31.5933 -90.2728 56° Northeast 291 335 25,000  Level Houston Center
Tue 12:39:29 PM 31.6461 -90.1772 57° Northeast 292 336 25,000  Level Houston Center
Tue 12:40:31 PM 31.6914 -90.0994 56° Northeast 289 333 25,000  Level Houston Center
Tue 12:41:08 PM 31.7194 -90.0447 59° Northeast 284 327 25,000  Level Memphis Center
Tue 12:42:08 PM 31.7653 -89.9664 55° Northeast 284 327 25,000  Level Memphis Center
Tue 12:43:08 PM 31.8089 -89.8928 55° Northeast 284 327 25,000  Level Memphis Center
Tue 12:44:08 PM 31.8522 -89.8094 59° Northeast 284 327 25,000  Level Memphis Center
Tue 12:45:08 PM 31.8978 -89.7308 56° Northeast 284 327 25,000  Level Memphis Center
Tue 12:46:08 PM 31.9414 -89.6522 57° Northeast 284 327 25,000  Level Memphis Center
Tue 12:47:08 PM 31.9847 -89.5736 57° Northeast 284 327 25,000  Level Memphis Center
Tue 12:48:08 PM 32.0239 -89.5022 57° Northeast 284 327 25,000  Level Memphis Center
Tue 12:49:08 PM 32.0672 -89.4258 56° Northeast 284 327 25,000  Level Memphis Center
Tue 12:50:08 PM 32.1103 -89.3469 57° Northeast 284 327 25,000  Level Memphis Center
Tue 12:51:08 PM 32.1536 -89.2678 57° Northeast 284 327 25,000  Level Memphis Center
Tue 12:52:08 PM 32.1967 -89.1911 56° Northeast 284 327 25,000  Level Memphis Center
Tue 12:53:08 PM 32.2397 -89.1144 56° Northeast 279 321 25,000  Level Memphis Center
Tue 12:54:08 PM 32.2828 -89.0353 57° Northeast 285 328 25,000  Level Memphis Center
Tue 12:55:08 PM 32.3258 -88.9561 57° Northeast 285 328 25,000  Level Memphis Center
Tue 12:56:08 PM 32.3686 -88.8767 57° Northeast 285 328 25,000  Level Memphis Center
Tue 12:57:08 PM 32.4094 -88.8022 57° Northeast 285 328 25,000  Level Memphis Center
Tue 12:58:08 PM 32.4503 -88.7225 59° Northeast 285 328 25,000  Level Memphis Center
Tue 12:59:08 PM 32.4950 -88.6431 56° Northeast 285 328 25,000  Level Memphis Center
Tue 01:00:08 PM 32.5378 -88.5658 57° Northeast 285 328 25,000  Level Memphis Center
Tue 01:01:08 PM 32.5847 -88.4786 57° Northeast 285 328 25,000  Level Memphis Center
Tue 01:02:08 PM 32.6253 -88.4011 58° Northeast 285 328 25,000  Level Memphis Center
Tue 01:03:08 PM 32.6678 -88.3214 58° Northeast 285 328 25,000  Level Memphis Center
Tue 01:05:21 PM 32.7531 -88.1511 59° Northeast 286 329 25,000  Level Atlanta Center
Tue 01:06:21 PM 32.7953 -88.0739 57° Northeast 286 329 25,000  Level Atlanta Center
Tue 01:07:21 PM 32.8439 -87.9897 55° Northeast 280 322 25,000  Level Atlanta Center
Tue 01:08:21 PM 32.8881 -87.9100 57° Northeast 280 322 25,000  Level Atlanta Center
Tue 01:09:22 PM 32.9281 -87.8353 57° Northeast 273 314 25,000  Level Atlanta Center
Tue 01:10:21 PM 32.9658 -87.7600 59° Northeast 267 307 25,000  Level Atlanta Center
Tue 01:11:21 PM 33.0056 -87.6850 58° Northeast 267 307 25,000  Level Atlanta Center
Tue 01:12:21 PM 33.0411 -87.6144 59° Northeast 267 307 25,000  Level Atlanta Center
Tue 01:13:22 PM 33.0808 -87.5369 59° Northeast 267 307 25,000  Level Atlanta Center
Tue 01:14:22 PM 33.1206 -87.4592 59° Northeast 267 307 25,000  Level Atlanta Center
Tue 01:15:22 PM 33.1603 -87.3811 59° Northeast 272 313 25,000  Level Atlanta Center
Tue 01:16:21 PM 33.2042 -87.3036 56° Northeast 272 313 25,000  Level Atlanta Center
Tue 01:17:22 PM 33.2439 -87.2231 59° Northeast 272 313 25,000  Level Atlanta Center
Tue 01:18:22 PM 33.2856 -87.1450 57° Northeast 272 313 25,000  Level Atlanta Center
Tue 01:19:22 PM 33.3250 -87.0644 60° Northeast 272 313 25,000  Level Atlanta Center
Tue 01:20:22 PM 33.3667 -86.9861 57° Northeast 272 313 25,000  Level Atlanta Center
Tue 01:21:22 PM 33.4058 -86.9106 58° Northeast 272 313 25,000  Level Atlanta Center
Tue 01:22:22 PM 33.4453 -86.8297 60° Northeast 272 313 25,000  Level Atlanta Center
Tue 01:23:21 PM 33.4869 -86.7511 58° Northeast 272 313 25,000  Level Atlanta Center
Tue 01:24:22 PM 33.5281 -86.6753 57° Northeast 272 313 25,000  Level Atlanta Center
Tue 01:25:22 PM 33.5672 -86.5967 59° Northeast 272 313 25,000  Level Atlanta Center
Tue 01:26:22 PM 33.6064 -86.5181 59° Northeast 272 313 25,000  Level Atlanta Center
Tue 01:27:22 PM 33.6478 -86.4394 58° Northeast 272 313 25,000  Level Atlanta Center
Tue 01:28:22 PM 33.6889 -86.3581 59° Northeast 272 313 25,000  Level Atlanta Center
Tue 01:29:21 PM 33.7281 -86.2792 59° Northeast 272 313 25,000  Level Atlanta Center
Tue 01:30:22 PM 33.7692 -86.2003 58° Northeast 272 313 25,000  Level Atlanta Center
Tue 01:31:22 PM 33.8058 -86.1239 60° Northeast 272 313 25,000  Level Atlanta Center
Tue 01:32:22 PM 33.8467 -86.0472 57° Northeast 272 313 25,000  Level Atlanta Center
Tue 01:33:22 PM 33.8856 -85.9706 59° Northeast 272 313 25,000  Level Atlanta Center
Tue 01:34:21 PM 33.9200 -85.8989 60° Northeast 272 313 25,000  Level Atlanta Center
Tue 01:35:21 PM 33.9589 -85.8219 59° Northeast 266 306 25,000  Level Atlanta Center
Tue 01:36:22 PM 34.0017 -85.7478 55° Northeast 259 298 25,000  Level Atlanta Center
Tue 01:37:22 PM 34.0381 -85.6733 59° Northeast 253 291 25,000  Level Atlanta Center
Tue 01:38:21 PM 34.0767 -85.5961 59° Northeast 260 299 25,000  Level Atlanta Center
Tue 01:39:22 PM 34.1108 -85.5317 57° Northeast 255 293 25,000  Level Atlanta Center
Tue 01:40:21 PM 34.1472 -85.4544 60° Northeast 255 293 25,000  Level Atlanta Center
Tue 01:41:21 PM 34.1836 -85.3797 59° Northeast 250 288 25,000  Level Atlanta Center
Tue 01:42:21 PM 34.2219 -85.3025 59° Northeast 255 293 25,000  Level Atlanta Center
Tue 01:43:22 PM 34.2581 -85.2275 60° Northeast 255 293 25,000  Level Atlanta Center
Tue 01:44:21 PM 34.3006 -85.1453 58° Northeast 255 293 25,000  Level Atlanta Center
Tue 01:45:22 PM 34.3367 -85.0728 59° Northeast 255 293 25,000  Level Atlanta Center
Tue 01:46:21 PM 34.3728 -84.9953 61° Northeast 255 293 25,000  Level Atlanta Center
Tue 01:47:21 PM 34.4111 -84.9200 58° Northeast 255 293 25,000  Level Atlanta Center
Tue 01:48:22 PM 34.4492 -84.8450 58° Northeast 255 293 25,000  Level Atlanta Center
Tue 01:49:21 PM 34.4831 -84.7697 61° Northeast 255 293 25,000  Level Atlanta Center
Tue 01:50:21 PM 34.5208 -84.6942 59° Northeast 255 293 25,000  Level Atlanta Center
Tue 01:51:22 PM 34.5567 -84.6189 60° Northeast 247 284 25,000  Level Atlanta Center
Tue 01:52:21 PM 34.5864 -84.5561 60° Northeast 247 284 25,000  Level Atlanta Center
Tue 01:53:21 PM 34.6219 -84.4806 60° Northeast 247 284 25,000  Level Atlanta Center
Tue 01:54:22 PM 34.6578 -84.4075 59° Northeast 247 284 25,000  Level Atlanta Center
Tue 01:55:22 PM 34.6933 -84.3317 60° Northeast 247 284 25,000  Level Atlanta Center
Tue 01:56:22 PM 34.7269 -84.2586 61° Northeast 247 284 25,000  Level Atlanta Center
Tue 01:57:21 PM 34.7647 -84.1778 60° Northeast 247 284 25,000  Level Atlanta Center
Tue 01:58:21 PM 34.8003 -84.1069 59° Northeast 247 284 25,000  Level Atlanta Center
Tue 01:59:21 PM 34.8314 -84.0361 62° Northeast 247 284 25,000  Level Atlanta Center
Tue 02:00:21 PM 34.8650 -83.9653 60° Northeast 247 284 25,000  Level Atlanta Center
Tue 02:01:22 PM 34.9003 -83.8944 59° Northeast 247 284 25,000  Level Atlanta Center
Tue 02:02:22 PM 34.9336 -83.8208 61° Northeast 247 284 25,000  Level Atlanta Center
Tue 02:03:22 PM 34.9669 -83.7497 60° Northeast 242 278 25,000  Level Atlanta Center
Tue 02:04:21 PM 35.0022 -83.6811 58° Northeast 242 278 25,000  Level Atlanta Center
Tue 02:05:21 PM 35.0353 -83.6100 60° Northeast 242 278 25,000  Level Atlanta Center
Tue 02:06:22 PM 35.0622 -83.5464 63° Northeast 242 278 25,000  Level Atlanta Center
Tue 02:07:21 PM 35.0953 -83.4778 59° Northeast 237 273 25,000  Level Atlanta Center
Tue 02:08:22 PM 35.1283 -83.4064 60° Northeast 242 278 25,000  Level Atlanta Center
Tue 02:09:21 PM 35.1633 -83.3325 60° Northeast 236 272 25,000  Level Atlanta Center
Tue 02:10:22 PM 35.2025 -83.2533 59° Northeast 241 277 25,000  Level Atlanta Center
Tue 02:11:22 PM 35.2311 -83.1819 64° Northeast 236 272 25,000  Level Atlanta Center
Tue 02:12:22 PM 35.2642 -83.1128 60° Northeast 236 272 25,000  Level Atlanta Center
Tue 02:13:22 PM 35.2969 -83.0464 59° Northeast 231 266 25,000  Level Atlanta Center
Tue 02:14:21 PM 35.3278 -82.9772 61° Northeast 231 266 25,000 1,000 Level Atlanta Center
Tue 02:15:22 PM 35.3583 -82.9131 60° Northeast 226 260 27,000 992 Climbing Atlanta Center
Tue 02:16:22 PM 35.3789 -82.8697 60° Northeast 199 229 27,000  Level Atlanta Center
Tue 02:17:22 PM 35.4033 -82.8131 62° Northeast 182 209 27,000  Level Atlanta Center
Tue 02:18:22 PM 35.4319 -82.7489 61° Northeast 190 219 27,000  Level Atlanta Center
Tue 02:19:22 PM 35.4644 -82.6797 60° Northeast 207 238 27,000  Level Atlanta Center
Tue 02:20:22 PM 35.4931 -82.6153 61° Northeast 214 246 27,000  Level Atlanta Center
Tue 02:21:22 PM 35.5256 -82.5536 57° Northeast 209 241 27,000  Level Atlanta Center
Tue 02:22:21 PM 35.5561 -82.4892 60° Northeast 209 241 27,000  Level Atlanta Center
Tue 02:23:22 PM 35.5844 -82.4222 62° Northeast 214 246 27,000  Level Atlanta Center
Tue 02:24:22 PM 35.6150 -82.3603 59° Northeast 214 246 27,000  Level Atlanta Center
Tue 02:25:22 PM 35.6433 -82.2958 62° Northeast 209 241 27,000  Level Atlanta Center
Tue 02:26:22 PM 35.6694 -82.2367 61° Northeast 209 241 27,000  Level Atlanta Center
Tue 02:27:22 PM 35.6997 -82.1694 61° Northeast 209 241 27,000  Level Atlanta Center
Tue 02:28:22 PM 35.7300 -82.1022 61° Northeast 214 246 27,000  Level Atlanta Center
Tue 02:29:22 PM 35.7603 -82.0325 62° Northeast 219 252 27,000  Level Atlanta Center
Tue 02:30:22 PM 35.7906 -81.9650 61° Northeast 224 258 27,000  Level Atlanta Center
Tue 02:31:22 PM 35.8247 -81.8925 60° Northeast 224 258 27,000  Level Atlanta Center
Tue 02:32:22 PM 35.8547 -81.8225 62° Northeast 224 258 27,000  Level Atlanta Center
Tue 02:33:22 PM 35.8869 -81.7550 59° Northeast 219 252 27,000  Level Atlanta Center
Tue 02:34:22 PM 35.9147 -81.6875 63° Northeast 219 252 27,000  Level Atlanta Center
Tue 02:35:21 PM 35.9467 -81.6175 61° Northeast 219 252 27,000  Level Atlanta Center
Tue 02:36:22 PM 35.9767 -81.5497 61° Northeast 224 258 27,000  Level Atlanta Center
Tue 02:37:22 PM 36.0067 -81.4794 62° Northeast 224 258 27,000  Level Atlanta Center
Tue 02:38:22 PM 36.0322 -81.4172 63° Northeast 224 258 27,000  Level Atlanta Center
Tue 02:39:22 PM 36.0642 -81.3467 61° Northeast 224 258 27,000  Level Atlanta Center
Tue 02:40:22 PM 36.0961 -81.2764 61° Northeast 224 258 27,000  Level Atlanta Center
Tue 02:41:22 PM 36.1256 -81.2058 63° Northeast 224 258 27,000  Level Atlanta Center
Tue 02:42:22 PM 36.1553 -81.1356 62° Northeast 224 258 27,000  Level Atlanta Center
Tue 02:43:22 PM 36.1889 -81.0597 61° Northeast 224 258 27,000  Level Atlanta Center
Tue 02:44:22 PM 36.2206 -80.9889 61° Northeast 229 264 27,000  Level Atlanta Center
Tue 02:45:22 PM 36.2522 -80.9156 62° Northeast 229 264 27,000  Level Atlanta Center
Tue 02:46:22 PM 36.2817 -80.8450 63° Northeast 229 264 27,000  Level Atlanta Center
Tue 02:47:22 PM 36.3131 -80.7742 61° Northeast 237 273 27,000  Level Atlanta Center
Tue 02:49:10 PM 36.3661 -80.6531 61° Northeast 234 269 27,000  Level Washington Center
Tue 02:50:08 PM 36.3964 -80.5800 63° Northeast 234 269 27,000  Level Washington Center
Tue 02:51:09 PM 36.4264 -80.5072 63° Northeast 239 275 27,000  Level Washington Center
Tue 02:52:10 PM 36.4564 -80.4367 62° Northeast 239 275 27,000  Level Washington Center
Tue 02:53:09 PM 36.4864 -80.3661 62° Northeast 239 275 27,000  Level Washington Center
Tue 02:54:10 PM 36.5186 -80.2906 62° Northeast 239 275 27,000  Level Washington Center
Tue 02:55:08 PM 36.5531 -80.2100 62° Northeast 239 275 27,000  Level Washington Center
Tue 02:56:09 PM 36.5831 -80.1367 63° Northeast 239 275 27,000  Level Washington Center
Tue 02:57:09 PM 36.6150 -80.0611 62° Northeast 239 275 27,000  Level Washington Center
Tue 02:58:10 PM 36.6469 -79.9903 61° Northeast 239 275 27,000  Level Washington Center
Tue 02:59:08 PM 36.6744 -79.9219 63° Northeast 239 275 27,000 -655 Level Washington Center
Tue 03:00:09 PM 36.7064 -79.8433 63° Northeast 239 275 25,700 -1,328 Descending Washington Center
Tue 03:01:10 PM 36.7383 -79.7650 63° Northeast 239 275 24,300 -857 Descending Washington Center
Tue 03:02:08 PM 36.7725 -79.6889 61° Northeast 239 275 24,000 -403 Descending Washington Center
Tue 03:03:09 PM 36.8067 -79.6050 63° Northeast 239 275 23,500 -934 Descending Washington Center
Tue 03:04:10 PM 36.8406 -79.5239 62° Northeast 244 281 22,100 -1,240 Descending Washington Center
Tue 03:05:10 PM 36.8767 -79.4372 62° Northeast 258 297 21,000 -559 Descending Washington Center
Tue 03:06:08 PM 36.9042 -79.3661 64° Northeast 257 296 21,000  Level Washington Center
Tue 03:07:08 PM 36.9375 -79.2922 61° Northeast 252 290 21,000  Level Washington Center
Tue 03:08:10 PM 36.9669 -79.2183 63° Northeast 245 282 21,000  Level Washington Center
Tue 03:09:08 PM 37.0006 -79.1419 61° Northeast 240 276 21,000  Level Washington Center
Tue 03:10:08 PM 37.0322 -79.0600 64° Northeast 240 276 21,000  Level Washington Center
Tue 03:11:10 PM 37.0614 -78.9858 64° Northeast 240 276 21,000  Level Washington Center
Tue 03:12:10 PM 37.0947 -78.9117 61° Northeast 240 276 21,000 -51 Level Washington Center
Tue 03:13:08 PM 37.1217 -78.8453 63° Northeast 240 276 20,900 -504 Descending Washington Center
Tue 03:14:09 PM 37.1508 -78.7656 65° Northeast 240 276 20,000 -885 Descending Washington Center
Tue 03:15:10 PM 37.1844 -78.6864 62° Northeast 245 282 19,100 -893 Descending Washington Center
Tue 03:16:10 PM 37.2175 -78.6067 62° Northeast 245 282 18,200 -1,008 Descending Washington Center
Tue 03:17:09 PM 37.2553 -78.5144 63° Northeast 253 291 17,100 -600 Descending Washington Center
Tue 03:18:10 PM 37.2864 -78.4397 62° Northeast 253 291 17,000 -50 Descending Washington Center
Tue 03:19:10 PM 37.3172 -78.3653 62° Northeast 246 283 17,000  Level Washington Center
Tue 03:20:08 PM 37.3483 -78.2881 63° Northeast 246 283 17,000  Level Washington Center
Tue 03:21:09 PM 37.3769 -78.2211 62° Northeast 241 277 17,000  Level Washington Center
Tue 03:22:10 PM 37.4081 -78.1358 65° Northeast 236 272 17,000  Level Washington Center
Tue 03:23:08 PM 37.4367 -78.0583 65° Northeast 236 272 17,000  Level Washington Center
Tue 03:24:09 PM 37.4675 -77.9833 63° Northeast 236 272 17,000  Level Washington Center
Tue 03:25:10 PM 37.4981 -77.9058 64° Northeast 236 272 17,000  Level Washington Center
Tue 03:26:10 PM 37.5289 -77.8308 63° Northeast 236 272 17,000 -403 Level Washington Center
Tue 03:27:09 PM 37.5942 -77.7856 29° Northeast 243 280 16,200 -1,160 Descending Washington Center
Tue 03:28:09 PM 37.6639 -77.7483 23° Northeast 248 285 14,700 -1,438 Descending Washington Center
Tue 03:29:10 PM 37.7292 -77.7028 29° Northeast 258 297 13,300 -1,412 Descending Washington Center
Tue 03:30:08 PM 37.7967 -77.6653 24° Northeast 263 303 11,900 -1,462 Descending Washington Center
Tue 03:31:09 PM 37.8597 -77.6303 24° Northeast 252 290 10,400 -1,426 Descending Washington Center
Tue 03:32:10 PM 37.9272 -77.5900 25° Northeast 252 290 9,000 -1,210 Descending Washington Center
Tue 03:33:08 PM 37.9944 -77.5522 24° Northeast 258 297 8,000 -504 Descending Washington Center
Tue 03:34:09 PM 38.0533 -77.5272 18° North 253 291 8,000  Level Washington Center
Tue 03:35:10 PM 38.1144 -77.4867 28° Northeast 253 291 8,000  Level Washington Center
Tue 03:36:08 PM 38.1756 -77.4511 25° Northeast 248 285 8,000 -809 Level Washington Center
Tue 03:38:08 PM 38.3167 -77.3833 21° North 235 270 5,600 -968 Descending Potomac TRACON
Tue 03:39:14 PM 38.3667 -77.3667 15° North 207 238 5,000 -300 Descending Potomac TRACON
Tue 03:40:08 PM 38.4333 -77.3667 360° North 231 266 5,000  Level Potomac TRACON
Tue 03:41:08 PM 38.5000 -77.3667 360° North 231 266 5,000  Level Potomac TRACON
Tue 03:42:08 PM 38.5500 -77.4000 332° Northwest 228 262 5,000  Level Potomac TRACON
Tue 03:43:09 PM 38.6000 -77.4500 322° Northwest 249 287 5,000 -149 Level Potomac TRACON
Tue 03:44:09 PM 38.6333 -77.5167 303° West 217 250 4,700 -550 Descending Potomac TRACON
Tue 03:45:09 PM 38.6833 -77.5667 322° Northwest 230 265 3,900 -381 Descending Potomac TRACON
Tue 03:46:15 PM 38.7500 -77.6167 330° Northwest 235 270 3,900  Level Potomac TRACON
Tue 03:47:09 PM 38.8000 -77.5833 27° Northeast 202 232 3,900 -526 Level Potomac TRACON
Tue 03:48:09 PM 38.8333 -77.5500 38° Northeast 203 234 2,900 -500 Descending Potomac TRACON
Tue 03:49:09 PM 38.8500 -77.4833 72° East 193 222 2,900  Level Potomac TRACON
Tue 03:50:10 PM 38.8333 -77.4333 113° Southeast 167 192 2,900  Level Potomac TRACON
Tue 03:51:10 PM 38.8167 -77.3833 113° Southeast 166 191 2,900  Level Potomac TRACON
Tue 03:52:10 PM 38.8333 -77.3333 67° East 189 217 2,900  Level Potomac TRACON
Tue 03:53:04 PM 38.8833 -77.3667 333° Northwest 208 239 2,900  Level Potomac TRACON
Tue 03:54:04 PM 38.9333 -77.3833 345° North 193 222 2,900  Level Potomac TRACON
Tue 03:55:04 PM 38.9833 -77.3833 360° North 193 222 2,900  Level Potomac TRACON
Tue 03:56:05 PM 39.0333 -77.3667 15° North 191 220 2,900  Level Potomac TRACON

Login

Don't have an account? Register now (free) for customized features, flight alerts, and more!